Time;durP1;ratioP1;P1;durP2;ratioP2;P2;SDS_P1;SDS_P2;PMS_P1;PMS_P2;Temp;Humidity;BMP_temperature;BMP_pressure;BME280_temperature;BME280_humidity;BME280_pressure;Samples;Min_cycle;Max_cycle;Signal;HPM_P1;HPM_P2
2022/01/10 00:01:28;;;;;;;2.83;1.40;;;;;;;2.98;77.61;92286.69;4998767;28;20048;-74
2022/01/10 00:03:54;;;;;;;4.47;2.13;;;;;;;2.83;78.00;92284.44;5019938;28;20052;-72
2022/01/10 00:06:19;;;;;;;2.38;2.10;;;;;;;2.88;77.87;92276.44;5010858;28;20057;-72
2022/01/10 00:08:45;;;;;;;1.73;1.48;;;;;;;2.78;78.27;92274.84;5015421;28;20588;-72
2022/01/10 00:11:10;;;;;;;3.08;1.55;;;;;;;2.67;77.86;92249.16;5015818;28;22368;-73
2022/01/10 00:13:36;;;;;;;2.08;1.50;;;;;;;3.06;77.80;92296.44;5003538;28;20107;-74
2022/01/10 00:16:03;;;;;;;2.53;1.85;;;;;;;2.77;78.14;92285.66;5016190;28;20490;-74
2022/01/10 00:18:28;;;;;;;1.65;1.55;;;;;;;2.89;78.03;92299.00;5022529;28;20055;-73
2022/01/10 00:20:54;;;;;;;1.73;1.30;;;;;;;2.74;79.00;92292.28;5010239;28;20029;-72
2022/01/10 00:23:19;;;;;;;3.10;1.50;;;;;;;2.63;79.18;92279.72;4996860;28;20029;-73
2022/01/10 00:25:45;;;;;;;1.50;1.40;;;;;;;2.68;79.48;92297.97;5011575;28;20041;-72
2022/01/10 00:28:10;;;;;;;1.73;1.63;;;;;;;2.80;79.36;92293.69;5017306;28;20562;-73
2022/01/10 00:30:41;;;;;;;3.22;2.20;;;;;;;2.78;79.83;92292.44;5011419;28;20044;-74
2022/01/10 00:33:07;;;;;;;1.67;1.58;;;;;;;2.78;80.00;92300.34;5016617;28;20049;-73
2022/01/10 00:35:32;;;;;;;2.47;1.67;;;;;;;2.76;80.02;92292.75;5017476;28;20409;-72
2022/01/10 00:37:57;;;;;;;1.98;1.55;;;;;;;2.78;79.88;92287.97;5014165;28;20034;-73
2022/01/10 00:40:23;;;;;;;4.88;2.05;;;;;;;2.68;80.14;92295.34;5017643;28;20800;-73
2022/01/10 00:42:55;;;;;;;3.25;2.20;;;;;;;2.68;80.20;92297.97;5014860;28;20045;-73
2022/01/10 00:45:28;;;;;;;2.25;1.77;;;;;;;2.70;80.37;92298.41;5013143;28;20049;-73
2022/01/10 00:47:56;;;;;;;2.97;1.90;;;;;;;2.56;80.42;92271.47;5017444;28;20071;-75
2022/01/10 00:50:24;;;;;;;1.88;1.77;;;;;;;2.21;80.76;92223.25;5017784;28;20553;-72
2022/01/10 00:52:50;;;;;;;2.05;1.70;;;;;;;2.39;80.86;92257.19;5013697;28;20682;-72
2022/01/10 00:55:16;;;;;;;3.13;1.65;;;;;;;2.47;80.96;92272.22;5013578;28;20563;-73
2022/01/10 00:57:42;;;;;;;1.67;1.58;;;;;;;2.71;80.54;92284.22;5021264;28;20563;-73
2022/01/10 01:00:10;;;;;;;2.15;1.77;;;;;;;2.72;80.39;92289.19;5012802;28;20091;-72
2022/01/10 01:02:35;;;;;;;2.67;1.77;;;;;;;2.48;80.73;92272.97;5019088;28;20037;-74
2022/01/10 01:05:05;;;;;;;2.28;1.73;;;;;;;2.55;80.73;92277.81;5018253;28;20418;-73
2022/01/10 01:07:31;;;;;;;2.35;2.13;;;;;;;2.52;80.79;92269.47;4987664;28;20147;-73
2022/01/10 01:10:46;;;;;;;2.17;1.75;;;;;;;2.68;80.86;92271.72;5017284;28;20509;-72
2022/01/10 01:24:02;;;;;;;2.03;1.80;;;;;;;2.53;81.57;92263.16;5013597;28;20088;-74
2022/01/10 01:26:29;;;;;;;3.45;2.28;;;;;;;2.83;81.32;92273.94;5022067;28;20036;-73
2022/01/10 01:28:55;;;;;;;2.65;2.20;;;;;;;2.68;81.77;92267.22;5007330;28;20194;-74
2022/01/10 01:31:23;;;;;;;3.67;1.98;;;;;;;2.66;82.31;92268.59;5022849;28;20041;-74
2022/01/10 01:33:49;;;;;;;3.15;2.25;;;;;;;2.74;82.29;92281.00;5010241;28;20037;-72
2022/01/10 01:36:20;;;;;;;2.22;2.03;;;;;;;2.49;82.53;92246.47;5021066;28;20379;-74
2022/01/10 01:38:45;;;;;;;3.78;2.50;;;;;;;2.61;82.74;92264.25;5007777;28;20128;-72
2022/01/10 01:41:24;;;;;;;3.28;2.22;;;;;;;2.42;82.87;92243.47;5016512;28;20040;-73
2022/01/10 01:44:00;;;;;;;2.13;1.92;;;;;;;2.60;82.93;92267.19;5024971;28;20069;-72
2022/01/10 01:46:26;;;;;;;4.10;2.15;;;;;;;2.44;83.02;92235.31;5006638;28;20055;-74
2022/01/10 01:48:53;;;;;;;2.50;2.15;;;;;;;2.50;83.02;92231.47;5021166;28;20522;-73
2022/01/10 01:51:19;;;;;;;4.82;2.55;;;;;;;2.76;82.80;92255.22;5022162;28;20064;-73
2022/01/10 01:53:46;;;;;;;3.17;2.22;;;;;;;2.60;83.28;92259.31;5002970;28;20101;-73
2022/01/10 01:56:13;;;;;;;3.08;2.47;;;;;;;2.63;83.24;92256.88;5004727;28;20970;-73
2022/01/10 01:58:39;;;;;;;3.47;2.40;;;;;;;2.64;83.26;92255.03;5017889;28;20040;-72
2022/01/10 02:01:09;;;;;;;3.35;2.55;;;;;;;2.70;83.37;92249.31;5011187;28;20033;-72
2022/01/10 02:03:38;;;;;;;4.75;2.85;;;;;;;2.58;83.31;92235.22;5018450;28;20063;-74
2022/01/10 02:06:05;;;;;;;5.70;2.80;;;;;;;2.50;83.32;92232.22;5014639;28;20037;-73
2022/01/10 02:08:31;;;;;;;2.85;2.17;;;;;;;2.63;83.20;92230.63;5012567;28;20053;-73
2022/01/10 02:10:56;;;;;;;2.92;2.58;;;;;;;2.71;83.29;92263.22;5020958;28;20025;-73
2022/01/10 02:13:22;;;;;;;3.92;2.13;;;;;;;2.65;83.06;92240.78;4998164;28;20037;-73
2022/01/10 02:15:53;;;;;;;2.35;1.98;;;;;;;2.80;82.95;92258.78;5019929;28;20049;-73
2022/01/10 02:18:19;;;;;;;2.03;1.80;;;;;;;2.62;83.31;92247.44;5004146;28;20755;-73
2022/01/10 02:20:45;;;;;;;3.72;2.65;;;;;;;2.47;83.90;92234.69;5005006;28;20966;-73
2022/01/10 02:23:11;;;;;;;4.05;2.63;;;;;;;2.54;84.01;92242.94;5018722;28;20074;-72
2022/01/10 02:25:36;;;;;;;3.20;2.22;;;;;;;2.44;84.84;92243.97;5024109;28;20045;-73
2022/01/10 02:28:02;;;;;;;4.82;2.58;;;;;;;2.61;84.65;92263.47;5025332;28;20087;-74
2022/01/10 02:30:28;;;;;;;3.58;2.92;;;;;;;2.31;85.05;92239.53;5016659;28;20049;-73
2022/01/10 02:32:57;;;;;;;4.22;3.53;;;;;;;2.46;85.23;92247.03;5017255;28;20401;-74
2022/01/10 02:35:27;;;;;;;5.82;3.05;;;;;;;2.50;85.28;92261.09;5020526;28;20123;-73
2022/01/10 02:37:55;;;;;;;4.50;2.88;;;;;;;2.44;85.63;92259.69;5021039;28;20024;-73
2022/01/10 02:40:24;;;;;;;4.65;2.97;;;;;;;2.42;86.06;92269.72;5019032;28;20338;-73
2022/01/10 02:42:51;;;;;;;7.78;3.90;;;;;;;2.59;85.68;92269.03;4996937;28;20391;-74
2022/01/10 02:45:17;;;;;;;6.03;3.97;;;;;;;2.57;85.55;92273.03;5028061;28;20037;-73
2022/01/10 02:47:43;;;;;;;4.40;3.08;;;;;;;2.43;85.85;92266.00;5015991;28;20049;-73
2022/01/10 02:50:10;;;;;;;6.75;4.00;;;;;;;2.60;85.67;92272.44;5027868;28;20112;-72
2022/01/10 02:52:37;;;;;;;6.50;3.92;;;;;;;2.72;85.33;92267.41;5023280;28;20033;-72
2022/01/10 02:55:06;;;;;;;6.15;3.78;;;;;;;2.56;85.38;92268.84;5018979;28;20134;-73
2022/01/10 02:57:33;;;;;;;6.28;4.20;;;;;;;2.46;85.90;92262.00;5026720;28;20040;-74
2022/01/10 03:00:03;;;;;;;5.88;3.90;;;;;;;2.22;86.30;92241.34;5017316;28;20493;-74
2022/01/10 03:02:32;;;;;;;4.20;3.45;;;;;;;2.13;87.07;92250.22;5022072;28;20056;-73
2022/01/10 03:04:58;;;;;;;5.35;4.45;;;;;;;2.23;87.27;92271.75;5024481;28;20034;-73
2022/01/10 03:07:23;;;;;;;6.32;4.10;;;;;;;2.00;87.63;92244.75;5019208;28;20033;-73
2022/01/10 03:09:52;;;;;;;8.68;4.75;;;;;;;1.66;88.50;92215.63;5019740;28;20104;-73
2022/01/10 03:12:18;;;;;;;7.60;4.03;;;;;;;2.09;88.64;92276.28;5013836;28;20588;-72
2022/01/10 03:14:44;;;;;;;6.28;3.78;;;;;;;1.91;88.88;92238.63;5027102;28;20033;-72
2022/01/10 03:17:13;;;;;;;10.38;5.70;;;;;;;2.20;88.36;92267.09;5016625;28;20029;-73
2022/01/10 03:19:40;;;;;;;13.65;6.00;;;;;;;2.15;88.40;92266.44;5025073;28;20045;-73
2022/01/10 03:22:07;;;;;;;7.20;4.75;;;;;;;2.07;88.41;92266.06;5016866;28;20604;-73
2022/01/10 03:24:33;;;;;;;9.00;4.90;;;;;;;2.10;88.57;92269.97;5012826;28;20049;-72
2022/01/10 03:26:59;;;;;;;10.18;4.65;;;;;;;1.89;88.90;92248.66;5021142;28;20437;-74
2022/01/10 03:29:24;;;;;;;9.82;5.75;;;;;;;1.95;88.87;92239.63;5021448;28;20095;-73
2022/01/10 03:31:50;;;;;;;9.40;4.72;;;;;;;2.10;89.20;92272.59;5019446;28;20421;-73
2022/01/10 03:34:16;;;;;;;12.43;5.40;;;;;;;2.27;88.76;92277.16;5014757;28;20048;-73
2022/01/10 03:36:43;;;;;;;10.40;5.93;;;;;;;0.64;88.50;92044.22;5017435;28;20076;-73
2022/01/10 03:39:10;;;;;;;11.18;6.30;;;;;;;1.93;89.21;92259.31;5022320;28;20048;-73
2022/01/10 03:41:36;;;;;;;11.10;6.85;;;;;;;1.98;89.58;92272.31;5003117;28;20148;-73
2022/01/10 03:44:03;;;;;;;7.90;5.65;;;;;;;1.99;89.83;92266.00;5018678;28;20035;-72
2022/01/10 03:46:29;;;;;;;10.88;4.95;;;;;;;1.80;89.98;92252.25;5024117;28;20040;-73
2022/01/10 03:48:54;;;;;;;9.90;6.45;;;;;;;1.80;89.96;92247.03;5012581;28;20040;-74
2022/01/10 03:51:20;;;;;;;11.80;6.20;;;;;;;1.98;89.78;92273.09;5026410;28;20037;-73
2022/01/10 03:53:45;;;;;;;12.00;6.43;;;;;;;1.82;90.10;92271.06;5007935;28;20556;-73
2022/01/10 03:56:11;;;;;;;10.82;5.75;;;;;;;1.88;90.04;92275.94;5021775;28;20021;-74
2022/01/10 03:58:37;;;;;;;12.30;5.97;;;;;;;1.90;90.03;92284.31;5018762;28;20421;-73
2022/01/10 04:01:04;;;;;;;12.50;6.38;;;;;;;1.92;90.12;92281.38;5016925;28;20040;-74
2022/01/10 04:03:29;;;;;;;17.10;6.85;;;;;;;1.63;90.32;92251.03;5019674;28;20040;-73
2022/01/10 04:05:57;;;;;;;12.50;6.28;;;;;;;1.77;90.33;92263.31;5020126;28;20045;-73
2022/01/10 04:08:22;;;;;;;11.75;6.55;;;;;;;1.87;90.13;92274.38;5011042;28;20047;-72
2022/01/10 04:10:48;;;;;;;12.63;6.75;;;;;;;1.79;90.34;92287.41;5008938;28;20401;-72
2022/01/10 04:13:14;;;;;;;8.85;5.60;;;;;;;1.63;90.17;92256.28;5023183;28;20033;-74
2022/01/10 04:15:39;;;;;;;12.68;6.35;;;;;;;1.93;90.01;92291.56;5017597;28;20040;-73
2022/01/10 04:18:07;;;;;;;10.13;6.07;;;;;;;1.11;89.66;92171.22;5025162;28;20503;-73
2022/01/10 04:20:33;;;;;;;11.15;5.35;;;;;;;2.00;89.64;92299.03;5020524;28;20537;-72
2022/01/10 04:22:58;;;;;;;7.78;4.75;;;;;;;1.89;89.44;92293.22;5014499;28;20033;-73
2022/01/10 04:25:24;;;;;;;11.82;6.53;;;;;;;1.57;89.47;92254.06;5015271;28;20098;-74
2022/01/10 04:27:49;;;;;;;9.90;5.18;;;;;;;1.84;89.74;92313.50;5008820;28;20048;-73
2022/01/10 04:30:15;;;;;;;10.95;5.20;;;;;;;1.95;89.00;92305.16;5015855;28;20038;-73
2022/01/10 04:32:42;;;;;;;11.80;6.45;;;;;;;1.87;89.21;92315.56;5020019;28;20061;-73
2022/01/10 04:35:08;;;;;;;8.93;4.70;;;;;;;1.56;89.51;92284.75;5024105;28;20056;-73
2022/01/10 04:37:33;;;;;;;9.55;5.38;;;;;;;1.38;90.34;92298.72;5002982;28;20164;-72
2022/01/10 04:39:59;;;;;;;9.50;5.63;;;;;;;1.47;90.66;92306.69;5016393;28;20045;-72
2022/01/10 04:42:24;;;;;;;10.95;4.95;;;;;;;1.62;90.77;92319.44;5016572;28;20040;-72
2022/01/10 04:44:50;;;;;;;12.02;6.05;;;;;;;1.54;90.18;92302.59;5023797;28;20089;-72
2022/01/10 04:47:16;;;;;;;9.45;4.47;;;;;;;1.48;90.69;92316.84;5019486;28;20045;-73
2022/01/10 04:52:30;;;;;;;11.35;5.95;;;;;;;1.60;90.47;92327.63;4986518;28;20132;-73
2022/01/10 04:54:58;;;;;;;8.75;5.07;;;;;;;1.46;90.78;92332.09;5020932;28;20048;-73
2022/01/10 04:57:28;;;;;;;12.20;5.28;;;;;;;1.38;90.86;92324.91;5012915;28;20053;-74
2022/01/10 04:59:57;;;;;;;11.45;5.28;;;;;;;1.51;90.90;92334.63;5024335;28;20110;-75
2022/01/10 05:02:22;;;;;;;12.18;6.50;;;;;;;1.41;90.60;92319.09;5021067;28;20512;-72
2022/01/10 05:04:48;;;;;;;14.82;6.85;;;;;;;1.58;90.40;92342.84;5025125;28;20149;-72
2022/01/10 05:07:13;;;;;;;9.63;6.15;;;;;;;1.33;90.52;92322.38;5015966;28;20417;-73
2022/01/10 05:09:39;;;;;;;9.85;5.32;;;;;;;1.49;90.41;92336.75;5028008;28;20060;-72
2022/01/10 05:12:05;;;;;;;18.42;8.25;;;;;;;1.60;90.29;92353.81;5025018;28;20088;-73
2022/01/10 05:14:32;;;;;;;16.80;7.97;;;;;;;1.60;90.43;92353.06;5014451;28;20032;-73
2022/01/10 05:16:57;;;;;;;13.55;7.47;;;;;;;1.30;91.05;92349.16;5027632;28;20082;-73
2022/01/10 05:19:23;;;;;;;14.95;7.65;;;;;;;1.33;91.38;92345.19;5018698;28;20041;-72
2022/01/10 05:21:48;;;;;;;16.92;7.07;;;;;;;1.32;91.13;92331.34;5031275;28;20083;-72
2022/01/10 05:24:14;;;;;;;14.98;7.25;;;;;;;1.27;91.11;92328.81;5009295;28;20360;-73
2022/01/10 05:26:39;;;;;;;9.60;6.13;;;;;;;1.43;90.71;92337.91;5012856;28;22332;-72
2022/01/10 05:29:04;;;;;;;11.18;6.47;;;;;;;1.41;90.61;92344.53;5018354;28;20149;-72
2022/01/10 05:31:33;;;;;;;10.65;6.45;;;;;;;1.54;90.49;92354.22;5016211;28;20505;-74
2022/01/10 05:33:59;;;;;;;9.93;5.25;;;;;;;1.61;90.16;92350.16;5001992;28;21242;-72
2022/01/10 05:36:24;;;;;;;11.02;6.25;;;;;;;1.65;90.16;92369.44;5028966;28;20057;-73
2022/01/10 05:38:50;;;;;;;10.95;7.15;;;;;;;1.56;90.13;92373.03;5000904;28;20116;-73
2022/01/10 05:41:15;;;;;;;11.25;5.47;;;;;;;1.26;89.89;92311.53;5025501;28;20036;-74
2022/01/10 05:43:41;;;;;;;12.30;6.97;;;;;;;1.62;90.01;92379.72;5019874;28;20751;-73
2022/01/10 05:46:11;;;;;;;12.25;5.72;;;;;;;1.39;90.28;92362.34;5023683;28;20505;-73
2022/01/10 05:48:39;;;;;;;12.35;6.60;;;;;;;1.23;90.88;92364.47;5016112;28;20776;-72
2022/01/10 05:51:05;;;;;;;9.93;5.75;;;;;;;1.17;91.37;92361.19;5022534;28;20053;-74
2022/01/10 05:53:31;;;;;;;11.20;6.60;;;;;;;1.11;91.05;92341.41;5024618;28;20268;-73
2022/01/10 05:55:56;;;;;;;13.48;6.72;;;;;;;1.29;91.33;92386.13;5025154;28;20438;-73
2022/01/10 05:58:21;;;;;;;14.65;7.55;;;;;;;1.10;91.28;92370.50;5023305;28;20037;-73
2022/01/10 06:00:48;;;;;;;13.73;8.00;;;;;;;0.96;91.55;92354.75;5022035;28;20042;-74
2022/01/10 06:03:13;;;;;;;9.52;6.00;;;;;;;1.06;91.94;92385.22;5016178;28;20593;-73
2022/01/10 06:05:39;;;;;;;10.35;7.20;;;;;;;1.02;92.33;92394.72;5023922;28;20052;-73
2022/01/10 06:08:08;;;;;;;17.15;7.82;;;;;;;0.99;92.27;92376.97;5021223;28;20083;-74
2022/01/10 06:10:34;;;;;;;14.63;8.25;;;;;;;1.22;91.95;92395.16;5022986;28;20033;-73
2022/01/10 06:13:00;;;;;;;13.63;8.30;;;;;;;1.26;91.98;92400.59;5027771;28;20352;-72
2022/01/10 06:15:25;;;;;;;13.60;8.23;;;;;;;1.21;92.02;92398.84;5017851;28;20048;-72
2022/01/10 06:17:51;;;;;;;13.45;8.45;;;;;;;1.26;92.10;92400.59;5023194;28;20068;-73
2022/01/10 06:20:17;;;;;;;16.35;8.50;;;;;;;1.33;91.84;92400.97;5021280;28;20018;-72
2022/01/10 06:22:43;;;;;;;20.00;8.68;;;;;;;1.27;91.98;92412.63;5028559;28;20032;-74
2022/01/10 06:25:12;;;;;;;11.55;6.93;;;;;;;1.13;91.70;92378.53;5019915;28;20041;-73
2022/01/10 06:27:38;;;;;;;17.48;8.00;;;;;;;1.18;92.10;92380.31;5021966;28;20055;-74
2022/01/10 06:30:04;;;;;;;14.77;7.47;;;;;;;1.23;92.07;92401.91;5016312;28;20501;-73
2022/01/10 06:32:30;;;;;;;17.38;7.45;;;;;;;1.37;91.91;92404.56;5017594;28;20305;-72
2022/01/10 06:34:57;;;;;;;11.27;6.47;;;;;;;1.45;91.48;92414.38;5020253;28;20025;-72
2022/01/10 06:37:23;;;;;;;16.88;7.82;;;;;;;1.33;91.83;92400.19;5019494;28;20051;-73
2022/01/10 06:39:49;;;;;;;13.52;8.55;;;;;;;1.51;91.47;92418.47;5019418;28;20041;-72
2022/01/10 06:42:14;;;;;;;17.27;8.00;;;;;;;1.37;91.59;92404.56;5020366;28;20650;-72
2022/01/10 06:44:40;;;;;;;20.08;9.23;;;;;;;1.43;91.66;92419.13;5016623;28;20049;-73
2022/01/10 06:47:05;;;;;;;17.80;7.18;;;;;;;1.52;91.53;92421.88;5022429;28;20021;-73
2022/01/10 06:49:31;;;;;;;22.95;8.90;;;;;;;1.46;91.24;92410.69;5016774;28;20448;-72
2022/01/10 06:51:56;;;;;;;12.98;7.55;;;;;;;1.39;91.38;92431.25;5025946;28;20571;-73
2022/01/10 06:54:21;;;;;;;16.98;7.72;;;;;;;1.41;91.53;92434.38;5020273;28;20041;-72
2022/01/10 06:56:47;;;;;;;17.50;9.25;;;;;;;1.28;91.60;92411.53;5004972;28;20257;-72
2022/01/10 06:59:12;;;;;;;15.52;7.90;;;;;;;1.37;91.34;92430.78;5023119;28;20045;-73
2022/01/10 07:01:38;;;;;;;13.23;7.43;;;;;;;1.31;91.29;92421.44;5002793;28;20056;-73
2022/01/10 07:04:04;;;;;;;14.65;8.02;;;;;;;1.34;91.27;92433.94;5013568;28;20214;-73
2022/01/10 07:06:29;;;;;;;13.38;7.88;;;;;;;1.20;91.23;92430.53;5011764;28;20049;-72
2022/01/10 07:08:55;;;;;;;20.98;9.70;;;;;;;1.31;91.26;92450.25;5021792;28;20139;-73
2022/01/10 07:11:20;;;;;;;16.33;8.52;;;;;;;1.32;90.98;92436.09;5021425;28;21165;-72
2022/01/10 07:13:46;;;;;;;18.40;9.75;;;;;;;1.36;90.91;92458.03;5020347;28;22078;-73
2022/01/10 07:16:12;;;;;;;16.85;8.88;;;;;;;1.36;91.14;92452.00;5022615;28;20071;-72
2022/01/10 07:18:38;;;;;;;15.98;8.18;;;;;;;1.43;90.73;92440.06;5023033;28;20037;-73
2022/01/10 07:21:03;;;;;;;15.13;7.57;;;;;;;1.77;90.01;92446.78;5007725;28;20094;-73
2022/01/10 07:23:29;;;;;;;21.13;7.68;;;;;;;1.68;89.67;92462.41;5024181;28;20029;-73
2022/01/10 07:25:55;;;;;;;13.07;8.65;;;;;;;1.60;89.68;92452.63;5018533;28;20055;-73
2022/01/10 07:28:20;;;;;;;13.73;7.28;;;;;;;1.85;89.23;92464.47;5019606;28;20046;-73
2022/01/10 07:30:46;;;;;;;15.55;7.93;;;;;;;1.63;89.31;92449.41;5003575;28;20125;-72
2022/01/10 07:33:12;;;;;;;16.88;7.93;;;;;;;1.73;89.47;92441.38;5023894;28;20037;-73
2022/01/10 07:35:37;;;;;;;13.65;8.60;;;;;;;1.77;89.04;92454.66;5020949;28;20035;-72
2022/01/10 07:38:02;;;;;;;16.15;6.63;;;;;;;1.94;89.01;92481.09;5005218;28;20033;-73
2022/01/10 07:40:28;;;;;;;12.43;7.75;;;;;;;2.05;88.46;92464.13;5024094;28;20157;-73
2022/01/10 07:42:54;;;;;;;13.38;7.07;;;;;;;2.09;88.41;92465.09;5019313;28;20138;-74
2022/01/10 07:45:20;;;;;;;13.15;6.75;;;;;;;2.15;88.37;92471.78;5019415;28;20033;-72
2022/01/10 07:47:45;;;;;;;16.42;8.20;;;;;;;2.12;88.30;92482.06;5022188;28;20082;-73
2022/01/10 07:50:11;;;;;;;13.77;8.30;;;;;;;1.91;88.77;92476.47;5021272;28;20040;-74
2022/01/10 07:52:37;;;;;;;21.63;9.05;;;;;;;2.04;88.83;92483.53;5020750;28;20437;-73
2022/01/10 07:55:04;;;;;;;16.88;9.07;;;;;;;1.94;88.89;92487.13;5018057;28;20570;-72
2022/01/10 07:57:29;;;;;;;16.77;8.50;;;;;;;2.05;88.87;92472.00;5023306;28;20044;-73
2022/01/10 07:59:55;;;;;;;16.75;9.05;;;;;;;1.97;88.62;92481.28;4999949;28;20041;-74
2022/01/10 08:02:21;;;;;;;19.27;9.48;;;;;;;1.87;88.79;92483.31;5011310;28;20384;-73
2022/01/10 08:04:47;;;;;;;21.48;11.20;;;;;;;1.85;89.02;92488.06;5026249;28;20694;-72
2022/01/10 08:07:13;;;;;;;24.70;9.35;;;;;;;1.68;89.33;92473.69;5021811;28;20406;-72
2022/01/10 08:09:38;;;;;;;19.13;10.27;;;;;;;1.76;89.60;92477.50;5019832;28;20459;-72
2022/01/10 08:12:04;;;;;;;19.60;9.82;;;;;;;1.68;89.75;92471.06;5027732;28;20038;-72
2022/01/10 08:14:31;;;;;;;21.65;11.35;;;;;;;1.60;89.91;92447.38;5024002;28;20033;-73
2022/01/10 08:16:58;;;;;;;27.05;11.15;;;;;;;1.69;89.86;92474.47;5020752;28;20037;-72
2022/01/10 08:19:23;;;;;;;18.55;9.77;;;;;;;1.74;90.31;92484.06;5028731;28;20051;-72
2022/01/10 08:21:49;;;;;;;17.20;9.70;;;;;;;1.46;90.67;92446.59;5040893;28;20048;-72
2022/01/10 08:24:14;;;;;;;19.65;10.88;;;;;;;1.66;90.77;92478.47;5026052;28;20046;-73
2022/01/10 08:26:40;;;;;;;21.63;10.90;;;;;;;1.67;91.02;92474.75;5027774;28;20043;-73
2022/01/10 08:29:07;;;;;;;16.08;9.07;;;;;;;1.50;91.45;92468.53;5025744;28;20458;-72
2022/01/10 08:31:33;;;;;;;25.02;11.25;;;;;;;1.63;91.56;92492.13;5028028;28;20412;-72
2022/01/10 08:34:00;;;;;;;18.13;9.73;;;;;;;1.66;91.53;92475.06;5023631;28;20041;-72
2022/01/10 08:36:28;;;;;;;16.70;10.02;;;;;;;1.77;91.46;92471.16;5025141;28;20038;-72
2022/01/10 08:38:54;;;;;;;21.10;11.18;;;;;;;1.65;91.58;92470.88;5029605;28;20040;-72
2022/01/10 08:41:20;;;;;;;25.73;10.13;;;;;;;1.69;91.37;92458.75;5024154;28;20025;-72
2022/01/10 08:43:45;;;;;;;23.10;11.35;;;;;;;1.59;91.60;92472.81;5023891;28;20476;-73
2022/01/10 08:46:11;;;;;;;25.65;13.00;;;;;;;1.74;91.53;92476.22;5021636;28;20048;-72
2022/01/10 08:48:36;;;;;;;27.58;14.05;;;;;;;2.04;91.11;92488.78;5026532;28;20045;-73
2022/01/10 08:51:02;;;;;;;35.33;16.20;;;;;;;1.85;89.71;92486.22;5024788;28;20508;-71
2022/01/10 08:53:27;;;;;;;36.65;17.58;;;;;;;1.89;89.19;92481.22;5033296;28;20023;-72
2022/01/10 08:55:53;;;;;;;33.13;16.85;;;;;;;2.21;87.93;92498.66;5031300;28;20021;-72
2022/01/10 08:58:19;;;;;;;26.80;14.43;;;;;;;2.04;86.91;92494.81;5028402;28;20470;-72
2022/01/10 09:00:44;;;;;;;29.23;15.57;;;;;;;2.09;86.08;92491.31;5025458;28;20140;-73
2022/01/10 09:03:10;;;;;;;18.65;11.82;;;;;;;2.70;84.98;92495.28;5026390;28;20043;-72
2022/01/10 09:05:35;;;;;;;17.42;8.98;;;;;;;2.79;83.50;92502.16;5028770;28;20398;-72
2022/01/10 09:08:02;;;;;;;17.67;8.80;;;;;;;2.71;82.07;92488.97;5028812;28;20929;-72
2022/01/10 09:10:28;;;;;;;14.13;7.78;;;;;;;2.78;81.53;92499.84;5026761;28;20079;-73
2022/01/10 09:12:53;;;;;;;14.43;6.50;;;;;;;2.99;80.67;92497.56;5027523;28;20063;-72
2022/01/10 09:15:19;;;;;;;14.43;8.00;;;;;;;3.67;79.26;92513.75;5025288;28;20040;-73
2022/01/10 09:17:44;;;;;;;12.07;7.05;;;;;;;3.80;77.60;92510.28;5025548;28;20041;-73
2022/01/10 09:20:10;;;;;;;15.80;7.55;;;;;;;4.15;76.34;92503.31;5030017;28;20055;-72
2022/01/10 09:22:35;;;;;;;9.23;5.22;;;;;;;3.98;75.16;92479.56;5017232;28;20405;-72
2022/01/10 09:25:01;;;;;;;9.93;6.05;;;;;;;4.16;74.39;92483.06;5026783;28;20051;-73
2022/01/10 09:27:27;;;;;;;9.63;6.32;;;;;;;4.40;73.42;92509.00;5010833;28;20156;-75
2022/01/10 09:29:52;;;;;;;41.78;13.50;;;;;;;4.40;72.92;92498.47;5026012;28;20037;-72
2022/01/10 09:32:17;;;;;;;8.95;5.60;;;;;;;4.33;72.70;92495.50;5024372;28;20395;-72
2022/01/10 09:34:43;;;;;;;11.68;6.35;;;;;;;4.06;72.75;92476.19;5028755;28;20426;-73
2022/01/10 09:37:08;;;;;;;9.65;5.80;;;;;;;4.65;71.80;92503.00;5015760;28;20049;-73
2022/01/10 09:39:34;;;;;;;9.68;5.45;;;;;;;4.46;71.20;92476.16;5022610;28;20041;-73
2022/01/10 09:42:00;;;;;;;12.07;6.03;;;;;;;4.47;71.69;92477.72;5021514;28;20018;-73
2022/01/10 09:44:26;;;;;;;14.30;7.68;;;;;;;4.40;71.56;92488.72;5024076;28;20045;-74
2022/01/10 09:46:53;;;;;;;15.68;8.38;;;;;;;4.20;73.34;92499.78;5027873;28;20449;-74
2022/01/10 09:49:19;;;;;;;12.60;7.20;;;;;;;3.76;74.61;92495.41;5011653;28;20029;-73
2022/01/10 09:51:45;;;;;;;20.13;7.82;;;;;;;4.23;73.49;92492.03;5029242;28;20037;-72
2022/01/10 09:54:13;;;;;;;20.38;8.80;;;;;;;4.28;73.44;92504.28;5022790;28;20482;-74
2022/01/10 09:56:40;;;;;;;28.05;10.90;;;;;;;3.90;74.38;92505.84;5010840;28;20485;-73
2022/01/10 09:59:05;;;;;;;30.05;11.23;;;;;;;4.56;73.01;92502.22;5022955;28;20060;-74
2022/01/10 10:01:32;;;;;;;27.25;11.68;;;;;;;3.92;74.54;92506.28;5025526;28;20110;-74
2022/01/10 10:03:59;;;;;;;22.75;9.88;;;;;;;3.94;74.96;92509.41;5023991;28;20156;-74
2022/01/10 10:06:27;;;;;;;13.32;7.32;;;;;;;4.08;74.14;92502.97;5022885;28;20164;-74
2022/01/10 10:09:03;;;;;;;15.57;6.88;;;;;;;4.03;74.26;92489.19;5023915;28;20088;-73
2022/01/10 10:11:44;;;;;;;12.10;7.07;;;;;;;4.37;72.77;92499.06;5023733;28;21040;-74
2022/01/10 10:14:12;;;;;;;15.80;8.07;;;;;;;4.02;73.92;92509.44;5025408;28;20497;-73
2022/01/10 10:16:46;;;;;;;17.55;8.13;;;;;;;4.03;74.57;92505.75;5027525;28;20037;-72
2022/01/10 10:19:11;;;;;;;19.58;8.75;;;;;;;4.29;73.81;92487.41;5014151;28;20057;-73
2022/01/10 10:21:36;;;;;;;16.40;8.40;;;;;;;4.88;72.27;92506.31;5024262;28;20431;-74
2022/01/10 10:24:04;;;;;;;10.55;7.07;;;;;;;4.29;72.92;92497.94;5029275;28;20751;-73
2022/01/10 10:26:31;;;;;;;15.80;6.75;;;;;;;4.43;72.97;92476.78;5027493;28;20033;-73
2022/01/10 10:28:56;;;;;;;12.52;6.28;;;;;;;4.65;71.45;92442.44;5028877;28;20292;-73
2022/01/10 10:31:35;;;;;;;18.05;7.47;;;;;;;5.01;70.91;92492.97;5016490;28;20109;-73
2022/01/10 10:34:04;;;;;;;17.95;9.35;;;;;;;5.23;70.43;92499.97;5026462;28;20094;-74
2022/01/10 10:36:35;;;;;;;14.35;8.15;;;;;;;4.83;71.01;92498.53;5026897;28;20032;-73
2022/01/10 10:39:03;;;;;;;17.15;8.40;;;;;;;5.17;70.57;92495.16;5029605;28;20047;-72
2022/01/10 10:41:29;;;;;;;13.15;7.53;;;;;;;5.03;70.38;92475.00;5024652;28;20501;-74
2022/01/10 10:43:55;;;;;;;15.63;6.97;;;;;;;5.14;70.10;92485.97;5023708;28;20040;-73
2022/01/10 10:46:25;;;;;;;24.60;9.40;;;;;;;4.97;70.28;92476.25;5027146;28;20064;-73
2022/01/10 10:48:53;;;;;;;19.48;7.75;;;;;;;5.26;69.95;92488.78;5022362;28;20033;-73
2022/01/10 10:51:19;;;;;;;16.38;9.73;;;;;;;5.14;70.54;92489.41;5022874;28;20029;-73
2022/01/10 10:53:46;;;;;;;15.02;8.30;;;;;;;5.06;70.60;92500.72;5026689;28;20051;-73
2022/01/10 10:56:11;;;;;;;16.73;9.00;;;;;;;4.61;71.46;92505.47;5015595;28;20033;-74
2022/01/10 10:58:39;;;;;;;16.98;7.40;;;;;;;4.30;72.30;92464.53;5020319;28;20765;-73
2022/01/10 11:01:05;;;;;;;17.75;9.15;;;;;;;4.75;72.31;92501.94;5025466;28;20091;-73
2022/01/10 11:03:31;;;;;;;16.63;8.85;;;;;;;4.73;71.21;92478.56;5020196;28;20409;-73
2022/01/10 11:05:59;;;;;;;24.92;12.07;;;;;;;5.25;70.56;92503.03;5023633;28;20280;-73
2022/01/10 11:08:31;;;;;;;17.40;9.93;;;;;;;5.29;69.76;92505.81;5023825;28;20411;-73
2022/01/10 11:10:58;;;;;;;14.30;8.60;;;;;;;4.84;70.47;92513.28;5024267;28;20252;-72
2022/01/10 11:13:24;;;;;;;20.48;9.38;;;;;;;3.87;74.57;92519.59;5020734;28;20036;-73
2022/01/10 11:15:55;;;;;;;22.25;11.57;;;;;;;4.60;73.64;92511.06;5027862;28;20495;-73
2022/01/10 11:18:21;;;;;;;17.08;10.18;;;;;;;4.62;72.61;92514.16;5025430;28;20029;-73
2022/01/10 11:20:52;;;;;;;19.35;10.55;;;;;;;4.51;72.36;92524.19;5027558;28;20032;-74
2022/01/10 11:23:18;;;;;;;17.55;9.52;;;;;;;4.36;72.46;92518.56;5028934;28;20605;-73
2022/01/10 11:25:43;;;;;;;17.38;7.88;;;;;;;4.50;72.43;92517.38;5005821;28;20115;-73
2022/01/10 11:28:23;;;;;;;20.25;9.23;;;;;;;4.39;71.27;92513.50;5026207;28;20622;-73
2022/01/10 11:31:02;;;;;;;14.45;7.82;;;;;;;4.64;71.30;92525.16;5017642;28;20044;-73
2022/01/10 11:33:34;;;;;;;13.10;7.32;;;;;;;4.77;70.80;92518.22;5025754;28;20643;-74
2022/01/10 11:36:09;;;;;;;14.07;7.95;;;;;;;4.76;71.12;92524.56;5019468;28;20108;-73
2022/01/10 11:38:49;;;;;;;13.10;6.88;;;;;;;4.64;70.92;92519.91;5021261;28;20033;-73
2022/01/10 11:41:22;;;;;;;12.68;7.18;;;;;;;5.02;70.15;92515.59;5019350;28;20040;-74
2022/01/10 11:43:50;;;;;;;12.18;6.80;;;;;;;4.51;70.92;92531.31;5025853;28;20711;-74
2022/01/10 11:46:39;;;;;;;11.23;6.22;;;;;;;3.88;73.03;92529.81;5028059;28;20041;-74
2022/01/10 11:49:15;;;;;;;10.75;6.20;;;;;;;4.11;73.24;92538.44;5024248;28;20123;-73